createdAt,value
2023-01-13T00:00:23.656Z,9.60
2023-01-13T00:02:54.160Z,9.70
2023-01-13T00:05:25.888Z,9.70
2023-01-13T00:07:58.662Z,9.80
2023-01-13T00:10:28.817Z,9.80
2023-01-13T00:12:58.975Z,9.80
2023-01-13T00:15:29.231Z,9.80
2023-01-13T00:18:01.482Z,9.80
2023-01-13T00:20:31.623Z,9.80
2023-01-13T00:23:04.601Z,9.80
2023-01-13T00:25:34.699Z,9.70
2023-01-13T00:28:04.814Z,9.80
2023-01-13T00:30:38.551Z,9.70
2023-01-13T00:33:08.634Z,9.70
2023-01-13T00:35:38.730Z,9.60
2023-01-13T00:38:11.626Z,9.60
2023-01-13T00:40:41.798Z,9.70
2023-01-13T00:43:27.543Z,9.60
2023-01-13T00:45:58.033Z,9.70
2023-01-13T00:48:29.829Z,9.70
2023-01-13T00:51:01.913Z,9.60
2023-01-13T00:53:39.137Z,9.60
2023-01-13T00:56:14.501Z,9.70
2023-01-13T00:58:46.162Z,9.80
2023-01-13T01:01:19.655Z,9.90
2023-01-13T01:03:52.053Z,9.80
2023-01-13T01:06:24.952Z,9.80
2023-01-13T01:08:58.692Z,9.90
2023-01-13T01:11:32.226Z,9.90
2023-01-13T01:14:05.782Z,10.00
2023-01-13T01:16:37.196Z,10.00
2023-01-13T01:19:07.358Z,9.90
2023-01-13T01:21:38.081Z,10.00
2023-01-13T01:24:12.564Z,10.10
2023-01-13T01:26:42.823Z,10.10
2023-01-13T01:29:17.336Z,10.10
2023-01-13T01:31:47.716Z,10.10
2023-01-13T01:34:18.010Z,10.10
2023-01-13T01:36:48.143Z,10.20
2023-01-13T01:39:20.814Z,10.30
2023-01-13T01:42:03.313Z,10.20
2023-01-13T01:44:58.063Z,10.20
2023-01-13T01:47:30.691Z,10.20
2023-01-13T01:50:04.256Z,10.20
2023-01-13T01:52:40.146Z,10.20
2023-01-13T01:55:19.070Z,10.20
2023-01-13T01:57:57.385Z,10.20
2023-01-13T02:00:30.183Z,10.20
2023-01-13T02:03:02.945Z,10.00
2023-01-13T02:05:34.555Z,10.10
2023-01-13T02:08:06.389Z,10.10
2023-01-13T02:10:42.062Z,10.10
2023-01-13T02:13:12.959Z,10.10
2023-01-13T02:15:54.999Z,10.20
2023-01-13T02:18:56.373Z,10.20
2023-01-13T02:22:04.634Z,10.20
2023-01-13T02:25:14.017Z,10.10
2023-01-13T02:28:17.149Z,10.10
2023-01-13T02:31:11.699Z,10.10
2023-01-13T02:34:07.095Z,10.10
2023-01-13T02:36:45.841Z,10.20
2023-01-13T02:39:25.791Z,10.20
2023-01-13T02:42:16.837Z,10.10
2023-01-13T02:44:54.457Z,10.20
2023-01-13T02:47:31.639Z,10.10
2023-01-13T02:50:07.195Z,10.10
2023-01-13T02:52:45.158Z,10.10
2023-01-13T02:55:25.029Z,10.10
2023-01-13T02:57:58.842Z,10.00
2023-01-13T03:00:30.910Z,10.10
2023-01-13T03:03:03.812Z,10.10
2023-01-13T03:05:36.633Z,10.10
2023-01-13T03:08:27.148Z,10.10
2023-01-13T03:11:08.762Z,10.10
2023-01-13T03:14:22.683Z,10.10
2023-01-13T03:17:14.105Z,10.10
2023-01-13T03:19:59.956Z,10.00
2023-01-13T03:22:41.174Z,10.00
2023-01-13T03:25:21.211Z,10.00
2023-01-13T03:27:58.368Z,10.00
2023-01-13T03:30:36.250Z,10.00
2023-01-13T03:33:14.336Z,10.00
2023-01-13T03:35:51.124Z,10.00
2023-01-13T03:38:26.836Z,10.00
2023-01-13T03:41:02.268Z,10.00
2023-01-13T03:43:53.783Z,9.90
2023-01-13T03:46:34.034Z,9.90
2023-01-13T03:49:09.941Z,9.90
2023-01-13T03:51:47.821Z,9.90
2023-01-13T03:54:21.744Z,9.90
2023-01-13T03:56:57.103Z,10.00
2023-01-13T03:59:40.996Z,9.90
2023-01-13T04:02:17.153Z,9.90
2023-01-13T04:04:54.863Z,9.90
2023-01-13T04:07:48.156Z,9.80
2023-01-13T04:10:26.482Z,9.70
2023-01-13T04:13:05.244Z,9.70
2023-01-13T04:15:40.732Z,9.60
2023-01-13T04:18:21.721Z,9.60
2023-01-13T04:20:54.988Z,9.60
2023-01-13T04:23:28.719Z,9.50
2023-01-13T04:26:00.708Z,9.50
2023-01-13T04:28:30.776Z,9.40
2023-01-13T04:31:00.810Z,9.40
2023-01-13T04:33:31.126Z,9.40
2023-01-13T04:36:01.105Z,9.50
2023-01-13T04:38:33.748Z,9.50
2023-01-13T04:41:03.958Z,9.50
2023-01-13T04:43:33.965Z,9.60
2023-01-13T04:46:04.016Z,9.60
2023-01-13T04:48:33.978Z,9.80
2023-01-13T04:51:04.368Z,9.90
2023-01-13T04:53:37.054Z,10.00
2023-01-13T04:56:07.716Z,10.00
2023-01-13T04:58:37.676Z,10.00
2023-01-13T05:01:07.719Z,10.00
2023-01-13T05:03:37.790Z,10.20
2023-01-13T05:06:08.200Z,10.10
2023-01-13T05:08:40.771Z,10.10
2023-01-13T05:11:23.723Z,10.20
2023-01-13T05:14:06.193Z,10.30
2023-01-13T05:16:48.694Z,10.40
2023-01-13T05:19:18.688Z,10.30
2023-01-13T05:22:01.202Z,10.40
2023-01-13T05:24:46.369Z,10.40
2023-01-13T05:27:16.369Z,10.40
2023-01-13T05:29:46.483Z,10.40
2023-01-13T05:32:16.475Z,10.40
2023-01-13T05:34:46.639Z,10.40
2023-01-13T05:37:16.606Z,10.40
2023-01-13T05:40:01.908Z,10.40
2023-01-13T05:42:44.538Z,10.50
2023-01-13T05:45:15.536Z,10.40
2023-01-13T05:47:45.524Z,10.40
2023-01-13T05:50:15.675Z,10.30
2023-01-13T05:52:46.163Z,10.40
2023-01-13T05:55:19.048Z,10.40
2023-01-13T05:57:49.085Z,10.30
2023-01-13T06:00:21.715Z,10.20
2023-01-13T06:02:51.973Z,10.20
2023-01-13T06:05:21.998Z,10.00
2023-01-13T06:07:52.004Z,10.10
2023-01-13T06:10:24.632Z,10.10
2023-01-13T06:12:54.711Z,10.10
2023-01-13T06:15:25.897Z,10.10
2023-01-13T06:17:57.159Z,10.10
2023-01-13T06:20:28.154Z,10.20
2023-01-13T06:22:58.332Z,10.20
2023-01-13T06:25:42.739Z,10.20
2023-01-13T06:28:13.503Z,10.10
2023-01-13T06:30:50.717Z,10.20
2023-01-13T06:33:27.613Z,10.10
2023-01-13T06:36:03.217Z,10.10
2023-01-13T06:38:40.023Z,10.10
2023-01-13T06:41:12.668Z,10.20
2023-01-13T06:43:40.849Z,10.20
2023-01-13T06:46:11.040Z,10.20
2023-01-13T06:48:41.041Z,10.10
2023-01-13T06:51:11.052Z,10.20
2023-01-13T06:53:40.980Z,10.20
2023-01-13T06:56:13.639Z,10.20
2023-01-13T06:58:43.646Z,10.20
2023-01-13T07:01:13.749Z,10.30
2023-01-13T07:03:43.898Z,10.40
2023-01-13T07:06:13.887Z,10.40
2023-01-13T07:08:43.911Z,10.40
2023-01-13T07:11:16.734Z,10.40
2023-01-13T07:13:59.180Z,10.40
2023-01-13T07:16:29.326Z,10.40
2023-01-13T07:18:59.592Z,10.30
2023-01-13T07:21:29.652Z,10.40
2023-01-13T07:24:00.296Z,10.30
2023-01-13T07:26:32.877Z,10.40
2023-01-13T07:29:03.183Z,10.30
2023-01-13T07:31:33.242Z,10.40
2023-01-13T07:34:06.011Z,10.40
2023-01-13T07:36:36.195Z,10.50
2023-01-13T07:39:06.573Z,10.40
2023-01-13T07:41:51.697Z,10.40
2023-01-13T07:44:21.814Z,10.40
2023-01-13T07:46:51.793Z,10.40
2023-01-13T07:49:22.765Z,10.40
2023-01-13T07:51:52.750Z,10.40
2023-01-13T07:54:35.116Z,10.40
2023-01-13T07:57:12.550Z,10.50
2023-01-13T07:59:42.461Z,10.50
2023-01-13T08:02:15.403Z,10.40
2023-01-13T08:04:45.509Z,10.30
2023-01-13T08:07:15.553Z,10.40
2023-01-13T08:09:45.550Z,10.30
2023-01-13T08:12:30.604Z,10.20
2023-01-13T08:15:00.685Z,10.20
2023-01-13T08:17:30.647Z,10.30
2023-01-13T08:20:00.595Z,10.40
2023-01-13T08:22:31.179Z,10.40
2023-01-13T08:25:01.307Z,10.60
2023-01-13T08:27:34.033Z,10.70
2023-01-13T08:30:04.046Z,10.80
2023-01-13T08:32:34.435Z,10.90
2023-01-13T08:35:04.478Z,11.00
2023-01-13T08:37:34.547Z,11.20
2023-01-13T08:40:04.946Z,11.30
2023-01-13T08:42:37.505Z,11.10
2023-01-13T08:45:09.431Z,10.80
2023-01-13T08:47:39.462Z,10.50
2023-01-13T08:50:11.806Z,10.10
2023-01-13T08:52:41.768Z,9.90
2023-01-13T08:55:12.897Z,9.80
2023-01-13T08:57:45.516Z,9.70
2023-01-13T09:00:17.637Z,9.70
2023-01-13T09:02:47.744Z,9.80
2023-01-13T09:05:17.985Z,9.80
2023-01-13T09:07:47.950Z,9.80
2023-01-13T09:10:18.176Z,9.80
2023-01-13T09:13:03.249Z,9.60
2023-01-13T09:15:33.214Z,9.50
2023-01-13T09:18:03.226Z,9.40
2023-01-13T09:20:33.171Z,9.30
2023-01-13T09:23:03.321Z,9.20
2023-01-13T09:25:35.624Z,9.20
2023-01-13T09:28:09.073Z,9.00
2023-01-13T09:30:40.789Z,8.90
2023-01-13T09:33:23.279Z,8.90
2023-01-13T09:35:53.259Z,8.80
2023-01-13T09:38:23.301Z,8.70
2023-01-13T09:40:53.319Z,8.70
2023-01-13T09:43:48.842Z,8.60
2023-01-13T09:46:38.653Z,8.60
2023-01-13T09:49:12.169Z,8.60
2023-01-13T09:51:50.159Z,8.60
2023-01-13T09:54:34.821Z,8.60
2023-01-13T09:57:04.873Z,8.70
2023-01-13T09:59:38.249Z,8.70
2023-01-13T10:02:34.635Z,8.90
2023-01-13T10:05:15.045Z,9.10
2023-01-13T10:07:52.482Z,9.20
2023-01-13T10:10:37.106Z,9.10
2023-01-13T10:13:20.181Z,8.80
2023-01-13T10:16:08.009Z,8.60
2023-01-13T10:18:53.097Z,8.50
2023-01-13T10:21:58.008Z,8.50
2023-01-13T10:24:51.977Z,8.50
2023-01-13T10:27:33.133Z,8.40
2023-01-13T10:30:13.954Z,8.30
2023-01-13T10:32:50.801Z,8.20
2023-01-13T10:35:20.870Z,8.30
2023-01-13T10:38:00.612Z,8.40
2023-01-13T10:40:30.562Z,8.50
2023-01-13T10:43:08.580Z,8.70
2023-01-13T10:45:38.668Z,8.80
2023-01-13T10:48:17.095Z,8.80
2023-01-13T10:50:51.215Z,8.90
2023-01-13T10:53:26.483Z,9.00
2023-01-13T10:56:04.694Z,8.90
2023-01-13T10:58:34.803Z,8.90
2023-01-13T11:01:09.616Z,8.70
2023-01-13T11:03:47.110Z,8.60
2023-01-13T11:06:26.021Z,8.70
2023-01-13T11:08:59.463Z,8.80
2023-01-13T11:11:41.868Z,8.60
2023-01-13T11:14:36.099Z,8.40
2023-01-13T11:17:19.243Z,8.20
2023-01-13T11:20:00.917Z,7.90
2023-01-13T11:22:37.344Z,7.70
2023-01-13T11:25:14.016Z,7.50
2023-01-13T11:27:52.478Z,7.50
2023-01-13T11:30:35.652Z,7.50
2023-01-13T11:33:33.212Z,7.50
2023-01-13T11:36:20.526Z,7.50
2023-01-13T11:38:55.648Z,7.50
2023-01-13T11:41:44.120Z,7.50
2023-01-13T11:44:24.051Z,7.60
2023-01-13T11:46:56.320Z,7.70
2023-01-13T11:49:31.074Z,7.70
2023-01-13T11:52:16.562Z,7.60
2023-01-13T11:55:10.150Z,7.40
2023-01-13T11:58:12.038Z,7.30
2023-01-13T12:01:17.549Z,7.30
2023-01-13T12:03:59.861Z,7.30
2023-01-13T12:06:38.383Z,7.20
2023-01-13T12:09:32.981Z,7.10
2023-01-13T12:12:32.900Z,7.20
2023-01-13T12:16:08.581Z,7.30
2023-01-13T12:19:07.644Z,7.40
2023-01-13T12:21:44.303Z,7.60
2023-01-13T12:24:27.494Z,7.80
2023-01-13T12:27:03.247Z,8.10
2023-01-13T12:29:37.100Z,8.50
2023-01-13T12:32:14.204Z,8.70
2023-01-13T12:35:08.696Z,9.00
2023-01-13T12:37:48.613Z,9.10
2023-01-13T12:40:36.376Z,9.20
2023-01-13T12:43:31.610Z,9.10
2023-01-13T12:46:55.963Z,9.40
2023-01-13T12:49:34.950Z,9.70
2023-01-13T12:52:19.958Z,9.80
2023-01-13T12:55:25.412Z,10.00
2023-01-13T12:58:15.570Z,10.00
2023-01-13T13:01:14.499Z,9.90
2023-01-13T13:03:45.300Z,9.90
2023-01-13T13:06:25.542Z,10.20
2023-01-13T13:09:06.694Z,10.40
2023-01-13T13:12:00.129Z,10.40
2023-01-13T13:15:04.397Z,10.40
2023-01-13T13:18:03.938Z,10.00
2023-01-13T13:20:58.119Z,9.60
2023-01-13T13:24:03.990Z,9.30
2023-01-13T13:26:48.294Z,9.40
2023-01-13T13:29:37.892Z,9.20
2023-01-13T13:32:54.807Z,9.10
2023-01-13T13:35:44.679Z,8.90
2023-01-13T13:38:50.647Z,9.00
2023-01-13T13:41:38.493Z,8.90
2023-01-13T13:44:32.566Z,8.90
2023-01-13T13:47:06.382Z,8.90
2023-01-13T13:49:44.998Z,8.90
2023-01-13T13:52:26.319Z,8.90
2023-01-13T13:55:03.065Z,8.90
2023-01-13T13:57:40.020Z,9.20
2023-01-13T14:00:28.029Z,9.50
2023-01-13T14:03:02.319Z,9.60
2023-01-13T14:05:34.664Z,9.90
2023-01-13T14:08:16.965Z,9.90
2023-01-13T14:10:48.934Z,9.80
2023-01-13T14:13:24.951Z,9.80
2023-01-13T14:16:04.239Z,9.70
2023-01-13T14:18:38.115Z,9.60
2023-01-13T14:21:23.100Z,9.30
2023-01-13T14:23:57.195Z,9.10
2023-01-13T14:26:30.774Z,8.90
2023-01-13T14:29:04.147Z,8.70
2023-01-13T14:31:38.072Z,8.50
2023-01-13T14:34:30.575Z,8.00
2023-01-13T14:37:00.755Z,7.50
2023-01-13T14:39:39.715Z,7.20
2023-01-13T14:42:16.488Z,7.00
2023-01-13T14:44:50.139Z,6.90
2023-01-13T14:47:34.169Z,6.90
2023-01-13T14:50:09.150Z,6.90
2023-01-13T14:52:51.080Z,6.80
2023-01-13T14:55:31.519Z,6.60
2023-01-13T14:58:26.780Z,6.50
2023-01-13T15:01:31.823Z,6.40
2023-01-13T15:04:28.520Z,6.20
2023-01-13T15:07:00.278Z,6.20
2023-01-13T15:09:40.352Z,6.10
2023-01-13T15:12:25.715Z,6.20
2023-01-13T15:14:57.596Z,6.30
2023-01-13T15:17:27.696Z,6.50
2023-01-13T15:20:00.926Z,6.50
2023-01-13T15:22:32.649Z,6.50
2023-01-13T15:25:09.693Z,6.40
2023-01-13T15:27:45.258Z,6.20
2023-01-13T15:30:21.317Z,6.00
2023-01-13T15:32:51.611Z,5.80
2023-01-13T15:35:26.775Z,5.70
2023-01-13T15:38:00.114Z,5.70
2023-01-13T15:40:38.140Z,5.60
2023-01-13T15:43:21.225Z,5.60
2023-01-13T15:46:04.177Z,5.50
2023-01-13T15:48:35.801Z,5.50
2023-01-13T15:51:08.689Z,5.40
2023-01-13T15:53:38.803Z,5.30
2023-01-13T15:56:23.831Z,5.20
2023-01-13T15:58:53.881Z,5.20
2023-01-13T16:01:24.667Z,5.20
2023-01-13T16:03:56.505Z,5.20
2023-01-13T16:06:36.286Z,5.10
2023-01-13T16:09:07.183Z,5.10
2023-01-13T16:11:37.196Z,5.00
2023-01-13T16:14:07.174Z,5.00
2023-01-13T16:16:39.256Z,5.00
2023-01-13T16:19:09.587Z,4.90
2023-01-13T16:21:42.390Z,4.90
2023-01-13T16:24:12.449Z,4.90
2023-01-13T16:26:42.575Z,4.90
2023-01-13T16:29:14.424Z,5.10
2023-01-13T16:31:44.379Z,5.20
2023-01-13T16:34:14.435Z,5.30
2023-01-13T16:36:47.025Z,5.40
2023-01-13T16:39:24.810Z,5.60
2023-01-13T16:41:55.429Z,5.60
2023-01-13T16:44:25.894Z,5.70
2023-01-13T16:46:55.978Z,5.60
2023-01-13T16:49:25.933Z,5.40
2023-01-13T16:51:58.483Z,5.30
2023-01-13T16:54:28.454Z,5.20
2023-01-13T16:56:58.425Z,5.10
2023-01-13T16:59:28.441Z,4.90
2023-01-13T17:01:58.484Z,4.80
2023-01-13T17:04:28.546Z,4.70
2023-01-13T17:07:05.996Z,4.60
2023-01-13T17:09:36.327Z,4.50
2023-01-13T17:12:06.815Z,4.40
2023-01-13T17:14:36.969Z,4.40
2023-01-13T17:17:23.454Z,4.30
2023-01-13T17:19:54.959Z,4.20
2023-01-13T17:22:27.671Z,4.30
2023-01-13T17:24:57.663Z,4.40
2023-01-13T17:27:27.637Z,4.50
2023-01-13T17:29:57.843Z,4.60
2023-01-13T17:32:27.873Z,4.60
2023-01-13T17:34:59.762Z,4.60
2023-01-13T17:37:32.480Z,4.80
2023-01-13T17:40:02.946Z,4.90
2023-01-13T17:42:33.245Z,4.90
2023-01-13T17:45:03.260Z,5.00
2023-01-13T17:47:33.246Z,5.10
2023-01-13T17:50:04.151Z,5.10
2023-01-13T17:52:37.164Z,5.20
2023-01-13T17:55:08.186Z,5.30
2023-01-13T17:57:38.544Z,5.30
2023-01-13T18:00:12.195Z,5.30
2023-01-13T18:02:44.792Z,5.40
2023-01-13T18:05:15.241Z,5.30
2023-01-13T18:07:47.821Z,5.40
2023-01-13T18:10:18.063Z,5.40
2023-01-13T18:12:48.120Z,5.40
2023-01-13T18:15:18.347Z,5.50
2023-01-13T18:17:48.328Z,5.60
2023-01-13T18:20:32.862Z,5.60
2023-01-13T18:23:18.210Z,5.60
2023-01-13T18:26:01.365Z,5.60
2023-01-13T18:28:31.555Z,5.50
2023-01-13T18:31:01.942Z,5.50
2023-01-13T18:33:31.940Z,5.50
2023-01-13T18:36:01.882Z,5.50
2023-01-13T18:38:35.537Z,5.40
2023-01-13T18:41:29.632Z,5.40
2023-01-13T18:43:57.147Z,5.40
2023-01-13T18:46:27.105Z,5.20
2023-01-13T18:48:57.132Z,5.10
2023-01-13T18:51:27.355Z,5.00
2023-01-13T18:54:00.961Z,4.90
2023-01-13T18:56:31.212Z,4.80
2023-01-13T18:59:02.420Z,4.80
2023-01-13T19:01:32.813Z,4.70
2023-01-13T19:04:10.336Z,4.60
2023-01-13T19:06:47.921Z,4.50
2023-01-13T19:09:24.947Z,4.50
2023-01-13T19:11:55.763Z,4.50
2023-01-13T19:14:37.685Z,4.50
2023-01-13T19:17:12.509Z,4.50
2023-01-13T19:19:45.428Z,4.50
2023-01-13T19:22:17.996Z,4.50
2023-01-13T19:24:50.698Z,4.50
2023-01-13T19:27:22.695Z,4.60
2023-01-13T19:29:57.503Z,4.50
2023-01-13T19:32:28.636Z,4.60
2023-01-13T19:34:59.675Z,4.50
2023-01-13T19:37:33.626Z,4.50
2023-01-13T19:40:09.389Z,4.40
2023-01-13T19:42:52.090Z,4.30
2023-01-13T19:45:33.894Z,4.40
2023-01-13T19:48:05.650Z,4.40
2023-01-13T19:50:40.197Z,4.60
2023-01-13T19:53:15.384Z,4.70
2023-01-13T19:55:50.538Z,4.70
2023-01-13T19:58:23.821Z,4.70
2023-01-13T20:00:54.598Z,4.80
2023-01-13T20:03:31.081Z,4.80
2023-01-13T20:06:10.321Z,4.80
2023-01-13T20:08:40.873Z,4.90
2023-01-13T20:11:31.380Z,5.00
2023-01-13T20:14:02.858Z,5.10
2023-01-13T20:16:33.993Z,5.00
2023-01-13T20:19:04.281Z,4.90
2023-01-13T20:21:34.418Z,5.00
2023-01-13T20:24:04.668Z,5.00
2023-01-13T20:26:39.052Z,5.00
2023-01-13T20:29:09.271Z,5.00
2023-01-13T20:31:39.277Z,5.10
2023-01-13T20:34:09.394Z,5.20
2023-01-13T20:36:43.361Z,5.20
2023-01-13T20:39:17.470Z,5.20
2023-01-13T20:42:08.895Z,5.20
2023-01-13T20:44:38.974Z,5.20
2023-01-13T20:47:09.158Z,5.20
2023-01-13T20:49:39.394Z,5.20
2023-01-13T20:52:11.871Z,5.10
2023-01-13T20:54:43.787Z,5.10
2023-01-13T20:57:16.591Z,4.90
2023-01-13T20:59:46.621Z,4.90
2023-01-13T21:02:20.309Z,4.70
2023-01-13T21:04:50.469Z,4.50
2023-01-13T21:07:20.966Z,4.40
2023-01-13T21:09:51.139Z,4.30
2023-01-13T21:12:36.238Z,4.30
2023-01-13T21:15:22.239Z,4.40
2023-01-13T21:18:19.397Z,4.60
2023-01-13T21:20:50.872Z,4.70
2023-01-13T21:23:20.866Z,4.80
2023-01-13T21:25:50.862Z,4.80
2023-01-13T21:28:23.781Z,4.80
2023-01-13T21:30:53.884Z,4.80
2023-01-13T21:33:24.401Z,4.90
2023-01-13T21:35:54.410Z,4.90
2023-01-13T21:38:25.912Z,4.90
2023-01-13T21:41:02.628Z,4.90
2023-01-13T21:43:48.242Z,4.90
2023-01-13T21:46:31.108Z,4.80
2023-01-13T21:49:01.131Z,4.80
2023-01-13T21:51:31.214Z,4.70
2023-01-13T21:54:01.616Z,4.80
2023-01-13T21:56:31.603Z,4.80
2023-01-13T21:59:04.215Z,4.80
2023-01-13T22:01:34.318Z,4.90
2023-01-13T22:04:22.106Z,5.00
2023-01-13T22:06:52.343Z,5.00
2023-01-13T22:09:22.369Z,5.00
2023-01-13T22:11:52.312Z,5.00
2023-01-13T22:14:25.453Z,5.20
2023-01-13T22:16:59.722Z,5.20
2023-01-13T22:19:30.570Z,5.10
2023-01-13T22:22:00.587Z,5.20
2023-01-13T22:24:30.524Z,5.20
2023-01-13T22:27:00.785Z,5.30
2023-01-13T22:29:33.286Z,5.50
2023-01-13T22:32:03.224Z,5.50
2023-01-13T22:34:33.386Z,5.60
2023-01-13T22:37:03.920Z,5.80
2023-01-13T22:39:33.874Z,5.90
2023-01-13T22:42:04.424Z,5.90
2023-01-13T22:44:37.143Z,5.90
2023-01-13T22:47:08.601Z,5.80
2023-01-13T22:49:38.567Z,5.70
2023-01-13T22:52:08.604Z,5.70
2023-01-13T22:54:38.614Z,5.60
2023-01-13T22:57:08.549Z,5.60
2023-01-13T22:59:41.312Z,5.60
2023-01-13T23:02:11.259Z,5.60
2023-01-13T23:04:41.297Z,5.50
2023-01-13T23:07:11.285Z,5.30
2023-01-13T23:09:41.287Z,5.00
2023-01-13T23:12:11.491Z,4.90
2023-01-13T23:14:44.130Z,4.80
2023-01-13T23:17:14.115Z,4.90
2023-01-13T23:19:44.116Z,4.90
2023-01-13T23:22:14.111Z,5.00
2023-01-13T23:24:44.091Z,5.00
2023-01-13T23:27:14.178Z,5.20
2023-01-13T23:29:46.793Z,5.30
2023-01-13T23:32:16.777Z,5.40
2023-01-13T23:34:46.815Z,5.30
2023-01-13T23:37:16.961Z,5.40
2023-01-13T23:39:47.214Z,5.40
2023-01-13T23:42:17.219Z,5.20
2023-01-13T23:44:49.840Z,5.10
2023-01-13T23:47:19.929Z,5.10
2023-01-13T23:49:49.877Z,5.00
2023-01-13T23:52:19.940Z,4.80
2023-01-13T23:54:49.885Z,4.80
2023-01-13T23:57:19.857Z,4.80
2023-01-13T23:59:52.566Z,4.80
